Time;durP1;ratioP1;P1;durP2;ratioP2;P2;SDS_P1;SDS_P2;PMS_P1;PMS_P2;Temp;Humidity;BMP_temperature;BMP_pressure;BME280_temperature;BME280_humidity;BME280_pressure;Samples;Min_cycle;Max_cycle;Signal;HPM_P1;HPM_P2
2021/12/13 00:00:50;;;;;;;110.33;42.73;;;;;;;-1.84;77.68;99709.42;2211549;81;21008;-80
2021/12/13 00:03:50;;;;;;;137.37;45.70;;;;;;;-1.80;77.62;99712.70;2211468;81;21451;-80
2021/12/13 00:06:51;;;;;;;98.10;39.43;;;;;;;-1.81;77.43;99704.53;2212034;81;21253;-80
2021/12/13 00:09:51;;;;;;;115.20;40.17;;;;;;;-1.82;77.42;99689.06;2211870;81;20937;-80
2021/12/13 00:12:52;;;;;;;102.63;40.40;;;;;;;-1.84;77.37;99681.27;2211531;81;20925;-80
2021/12/13 00:15:52;;;;;;;99.40;41.67;;;;;;;-1.89;77.37;99682.98;2211636;81;20992;-79
2021/12/13 00:18:53;;;;;;;87.43;37.07;;;;;;;-1.96;77.20;99697.89;2211048;81;20952;-79
2021/12/13 00:21:53;;;;;;;89.07;37.93;;;;;;;-2.15;77.14;99697.69;2211775;81;20936;-79
2021/12/13 00:24:54;;;;;;;88.13;38.13;;;;;;;-2.28;77.42;99708.66;2211786;81;20964;-79
2021/12/13 00:27:55;;;;;;;81.57;36.83;;;;;;;-2.36;77.46;99704.64;2211779;81;20925;-80
2021/12/13 00:30:55;;;;;;;92.30;39.40;;;;;;;-2.37;77.97;99703.74;2211492;81;21317;-80
2021/12/13 00:33:56;;;;;;;92.00;39.03;;;;;;;-2.29;78.09;99705.22;2211322;81;20995;-80
2021/12/13 00:36:57;;;;;;;90.57;37.43;;;;;;;-2.21;78.17;99709.63;2211463;81;20960;-79
2021/12/13 00:39:57;;;;;;;93.47;38.10;;;;;;;-2.16;78.22;99709.59;2211494;81;20948;-79
2021/12/13 00:42:58;;;;;;;92.13;38.97;;;;;;;-2.14;78.00;99720.82;2211338;81;20944;-79
2021/12/13 00:45:58;;;;;;;100.10;41.77;;;;;;;-2.12;78.24;99717.99;2211298;81;21320;-80
2021/12/13 00:48:59;;;;;;;103.27;42.07;;;;;;;-2.08;78.04;99720.39;2211399;81;20956;-79
2021/12/13 00:51:59;;;;;;;118.90;44.13;;;;;;;-2.06;78.09;99713.72;2210194;81;21015;-79
2021/12/13 00:55:00;;;;;;;110.13;44.60;;;;;;;-2.06;77.94;99715.00;2210937;81;21023;-80
2021/12/13 00:58:01;;;;;;;106.33;43.70;;;;;;;-2.06;77.89;99714.61;2211353;81;21091;-80
2021/12/13 01:01:01;;;;;;;107.67;42.20;;;;;;;-2.05;77.92;99710.39;2211500;81;20932;-80
2021/12/13 01:04:02;;;;;;;107.27;42.97;;;;;;;-2.10;77.43;99715.55;2210939;80;21023;-79
2021/12/13 01:07:02;;;;;;;107.67;41.47;;;;;;;-2.22;77.36;99709.13;2211098;81;21320;-79
2021/12/13 01:10:03;;;;;;;95.13;39.37;;;;;;;-2.32;77.30;99702.42;2211553;81;20944;-80
2021/12/13 01:13:04;;;;;;;98.13;43.37;;;;;;;-2.37;77.62;99701.58;2211363;81;20968;-80
2021/12/13 01:16:53;;;;;;;108.57;42.20;;;;;;;-2.32;77.90;99697.70;2211309;81;20992;-80
2021/12/13 01:28:56;;;;;;;114.27;45.57;;;;;;;-2.15;78.09;99696.02;2212192;81;20969;-81
2021/12/13 01:31:57;;;;;;;112.73;45.03;;;;;;;-2.11;77.97;99708.26;2212021;80;20921;-80
2021/12/13 01:34:57;;;;;;;117.80;46.57;;;;;;;-2.04;78.07;99705.77;2211278;81;21019;-80
2021/12/13 01:38:03;;;;;;;118.07;45.90;;;;;;;-1.98;77.94;99700.72;2211314;81;20960;-81
2021/12/13 01:41:00;;;;;;;114.10;45.10;;;;;;;-1.94;78.03;99700.17;2210891;80;21363;-80
2021/12/13 01:44:01;;;;;;;113.00;45.53;;;;;;;-1.89;77.84;99695.39;2211644;81;20944;-80
2021/12/13 01:47:01;;;;;;;113.73;44.70;;;;;;;-1.86;77.87;99706.24;2211421;81;20925;-80
2021/12/13 01:50:02;;;;;;;106.73;44.93;;;;;;;-1.86;77.70;99703.69;2211568;81;21000;-80
2021/12/13 01:53:02;;;;;;;120.57;45.43;;;;;;;-1.86;77.88;99699.45;2211493;81;21319;-80
2021/12/13 01:56:10;;;;;;;118.13;43.53;;;;;;;-1.83;78.07;99706.47;2211126;81;21000;-80
2021/12/13 01:59:15;;;;;;;116.87;44.67;;;;;;;-1.72;78.13;99709.46;2209386;80;21059;-80
2021/12/13 02:02:08;;;;;;;120.07;46.77;;;;;;;-1.66;78.10;99710.80;2206875;80;21032;-80
2021/12/13 02:05:08;;;;;;;120.47;47.63;;;;;;;-1.68;77.85;99709.80;2203611;81;20952;-80
2021/12/13 02:08:09;;;;;;;125.77;49.77;;;;;;;-1.66;77.82;99713.75;2194121;80;21352;-80
2021/12/13 02:11:09;;;;;;;123.57;48.10;;;;;;;-1.60;78.13;99719.31;2190720;81;20945;-80
2021/12/13 02:14:16;;;;;;;112.60;45.60;;;;;;;-1.56;77.90;99718.77;2192558;81;20929;-80
2021/12/13 02:17:12;;;;;;;120.73;46.77;;;;;;;-1.51;77.98;99713.59;2192054;81;21029;-80
2021/12/13 02:20:13;;;;;;;122.63;44.83;;;;;;;-1.53;77.58;99719.37;2192656;81;21008;-80
2021/12/13 02:23:13;;;;;;;112.70;44.90;;;;;;;-1.61;77.30;99706.91;2192643;81;20954;-80
2021/12/13 02:26:14;;;;;;;116.17;45.80;;;;;;;-1.69;77.41;99702.01;2192770;81;20894;-80
2021/12/13 02:29:14;;;;;;;132.07;47.73;;;;;;;-1.79;77.25;99704.25;2192455;81;21067;-80
2021/12/13 02:32:15;;;;;;;114.07;44.40;;;;;;;-1.89;77.50;99702.18;2192356;81;20972;-79
2021/12/13 02:35:15;;;;;;;121.30;42.43;;;;;;;-1.92;77.81;99705.02;2192110;81;21020;-80
2021/12/13 02:38:16;;;;;;;128.07;45.23;;;;;;;-1.88;77.99;99707.41;2191960;81;21328;-80
2021/12/13 02:41:16;;;;;;;128.30;42.33;;;;;;;-1.85;78.41;99699.95;2192549;81;20964;-80
2021/12/13 02:44:17;;;;;;;124.97;42.10;;;;;;;-1.78;78.24;99711.15;2192295;81;20945;-80
2021/12/13 02:47:17;;;;;;;112.13;43.43;;;;;;;-1.80;78.10;99713.09;2192204;81;20925;-80
2021/12/13 02:50:17;;;;;;;110.03;40.10;;;;;;;-1.81;78.18;99705.80;2192336;81;21024;-80
2021/12/13 02:53:18;;;;;;;122.07;44.13;;;;;;;-1.76;78.61;99711.27;2192343;81;21348;-80
2021/12/13 02:56:18;;;;;;;124.33;44.97;;;;;;;-1.70;78.72;99708.80;2192527;81;21007;-80
2021/12/13 02:59:20;;;;;;;112.17;44.57;;;;;;;-1.63;78.65;99709.75;2192781;81;20941;-80
2021/12/13 03:02:21;;;;;;;125.37;46.53;;;;;;;-1.54;78.61;99704.80;2193367;81;21443;-79
2021/12/13 03:05:22;;;;;;;130.37;45.53;;;;;;;-1.50;78.35;99706.41;2207198;80;20988;-79
2021/12/13 03:08:23;;;;;;;134.73;47.23;;;;;;;-1.44;78.45;99705.57;2211369;81;20933;-79
2021/12/13 03:11:24;;;;;;;124.33;43.80;;;;;;;-1.43;78.10;99700.06;2211555;81;20945;-81
2021/12/13 03:14:25;;;;;;;117.13;44.37;;;;;;;-1.43;78.13;99699.67;2211579;81;20988;-80
2021/12/13 03:17:25;;;;;;;129.50;44.57;;;;;;;-1.42;78.13;99696.33;2211581;81;20964;-80
2021/12/13 03:20:26;;;;;;;144.70;45.87;;;;;;;-1.38;78.14;99705.12;2211652;81;20933;-80
2021/12/13 03:23:26;;;;;;;132.20;47.80;;;;;;;-1.42;77.84;99711.69;2211799;81;20945;-79
2021/12/13 03:26:27;;;;;;;137.70;46.27;;;;;;;-1.46;78.01;99713.53;2211742;81;21261;-81
2021/12/13 03:29:27;;;;;;;163.37;55.40;;;;;;;-1.49;77.97;99706.91;2211583;81;21240;-80
2021/12/13 03:32:28;;;;;;;142.90;44.20;;;;;;;-1.51;78.13;99708.47;2211400;81;20976;-81
2021/12/13 03:35:28;;;;;;;103.87;37.10;;;;;;;-1.53;78.09;99701.06;2211294;81;21011;-80
2021/12/13 03:38:29;;;;;;;115.30;38.60;;;;;;;-1.52;78.28;99690.44;2211628;81;20961;-80
2021/12/13 03:41:29;;;;;;;132.53;38.40;;;;;;;-1.53;78.04;99688.65;2211382;81;20913;-82
2021/12/13 03:44:31;;;;;;;121.77;38.90;;;;;;;-1.53;78.33;99694.66;2211426;81;20916;-81
2021/12/13 03:47:34;;;;;;;134.00;39.10;;;;;;;-1.56;78.22;99696.11;2211307;81;20977;-79
2021/12/13 03:50:34;;;;;;;133.90;38.67;;;;;;;-1.59;78.25;99705.73;2211170;80;20984;-79
2021/12/13 03:53:34;;;;;;;117.33;33.67;;;;;;;-1.65;78.07;99711.70;2211297;81;21359;-80
2021/12/13 03:56:35;;;;;;;90.70;34.00;;;;;;;-1.74;78.06;99703.30;2211446;81;20937;-80
2021/12/13 03:59:35;;;;;;;102.90;32.77;;;;;;;-1.80;78.27;99706.70;2211368;81;20976;-80
2021/12/13 04:02:36;;;;;;;113.30;32.30;;;;;;;-1.81;78.38;99718.99;2210957;81;20992;-80
2021/12/13 04:05:37;;;;;;;91.97;34.70;;;;;;;-1.81;82.03;99712.59;2211159;81;20976;-80
2021/12/13 04:08:37;;;;;;;102.10;34.77;;;;;;;-1.54;79.27;99705.69;2211311;81;21316;-80
2021/12/13 04:11:38;;;;;;;132.77;39.60;;;;;;;-1.56;78.71;99709.80;2210959;81;20980;-81
2021/12/13 04:14:39;;;;;;;103.27;32.87;;;;;;;-1.63;78.17;99711.02;2211216;81;20999;-81
2021/12/13 04:17:58;;;;;;;97.53;34.87;;;;;;;-1.75;78.21;99717.77;2212094;80;20953;-81
2021/12/13 04:20:45;;;;;;;107.33;36.33;;;;;;;-1.83;78.37;99724.39;2208331;80;20993;-80
2021/12/13 04:23:45;;;;;;;87.50;32.00;;;;;;;-1.83;78.77;99720.55;2211789;81;20956;-80
2021/12/13 04:26:46;;;;;;;100.13;34.30;;;;;;;-1.80;78.83;99729.34;2212089;81;21360;-81
2021/12/13 04:29:46;;;;;;;93.53;35.23;;;;;;;-1.83;78.68;99724.39;2212150;81;20956;-81
2021/12/13 04:32:47;;;;;;;86.47;31.37;;;;;;;-1.85;78.56;99720.43;2211550;81;20952;-81
2021/12/13 04:35:47;;;;;;;88.47;31.67;;;;;;;-1.84;78.46;99713.64;2211426;81;21000;-81
2021/12/13 04:38:51;;;;;;;81.03;31.97;;;;;;;-1.97;78.59;99710.56;2211324;81;20952;-80
2021/12/13 04:41:51;;;;;;;104.57;34.50;;;;;;;-1.95;79.01;99712.47;2210945;81;20944;-80
2021/12/13 04:44:52;;;;;;;104.90;36.97;;;;;;;-1.88;79.27;99709.08;2211062;81;21017;-80
2021/12/13 04:47:53;;;;;;;90.63;35.07;;;;;;;-1.84;78.97;99711.09;2211065;81;21289;-81
2021/12/13 04:50:53;;;;;;;96.10;36.23;;;;;;;-1.91;78.73;99708.47;2210797;81;20995;-80
2021/12/13 04:53:57;;;;;;;87.20;33.57;;;;;;;-1.87;78.82;99714.31;2210540;81;20968;-77
2021/12/13 04:56:56;;;;;;;85.87;35.23;;;;;;;-1.81;78.97;99714.77;2209735;81;21011;-80
2021/12/13 04:59:57;;;;;;;78.07;30.40;;;;;;;-1.81;78.93;99703.64;2209045;81;20988;-81
2021/12/13 05:02:58;;;;;;;84.77;32.93;;;;;;;-1.80;78.75;99704.14;2205957;80;21020;-82
2021/12/13 05:05:59;;;;;;;83.43;32.57;;;;;;;-1.84;78.94;99706.86;2195670;81;21414;-81
2021/12/13 05:09:00;;;;;;;95.50;34.87;;;;;;;-1.78;78.93;99708.98;2196710;81;21011;-80
2021/12/13 05:12:00;;;;;;;93.03;36.30;;;;;;;-1.79;78.57;99705.53;2197686;80;20948;-81
2021/12/13 05:15:01;;;;;;;91.50;35.00;;;;;;;-1.79;78.90;99706.81;2196883;80;21039;-80
2021/12/13 05:18:02;;;;;;;105.33;38.60;;;;;;;-1.74;78.95;99714.44;2196266;80;21356;-80
2021/12/13 05:21:02;;;;;;;100.60;38.70;;;;;;;-1.75;78.93;99716.88;2197413;81;21024;-80
2021/12/13 05:24:03;;;;;;;103.00;39.30;;;;;;;-1.71;78.91;99717.25;2196935;81;21445;-80
2021/12/13 05:27:04;;;;;;;111.37;39.17;;;;;;;-1.52;80.00;99720.77;2196465;80;21000;-80
2021/12/13 05:30:05;;;;;;;107.93;39.17;;;;;;;-1.45;78.79;99719.16;2196160;80;21471;-80
2021/12/13 05:33:05;;;;;;;102.70;40.03;;;;;;;-1.48;78.54;99724.44;2196162;80;20940;-81
2021/12/13 05:36:06;;;;;;;115.77;41.70;;;;;;;-1.49;78.28;99731.63;2196154;80;21000;-80
2021/12/13 05:39:06;;;;;;;100.63;36.53;;;;;;;-1.61;78.26;99729.95;2194934;81;20985;-81
2021/12/13 05:42:07;;;;;;;101.67;36.30;;;;;;;-1.68;78.25;99726.83;2195398;80;21047;-81
2021/12/13 05:45:08;;;;;;;90.63;35.73;;;;;;;-1.79;78.58;99728.95;2196628;81;20976;-81
2021/12/13 05:48:08;;;;;;;113.63;39.43;;;;;;;-1.79;78.81;99736.63;2196777;80;20992;-83
2021/12/13 05:51:09;;;;;;;104.27;38.87;;;;;;;-1.78;78.71;99733.30;2195483;80;20960;-81
2021/12/13 05:54:09;;;;;;;125.20;45.50;;;;;;;-1.83;78.55;99739.73;2197094;81;20944;-80
2021/12/13 05:57:10;;;;;;;122.07;42.67;;;;;;;-1.88;78.90;99747.46;2195881;80;21059;-79
2021/12/13 06:00:11;;;;;;;132.90;44.00;;;;;;;-1.81;79.11;99749.31;2196155;81;21396;-79
2021/12/13 06:03:17;;;;;;;129.03;44.47;;;;;;;-1.75;78.98;99749.77;2196066;81;21101;-80
2021/12/13 06:06:14;;;;;;;124.90;41.30;;;;;;;-1.73;78.79;99740.57;2195779;81;21435;-81
2021/12/13 06:09:15;;;;;;;107.60;41.67;;;;;;;-1.80;78.67;99733.57;2196823;80;21008;-81
2021/12/13 06:12:15;;;;;;;124.90;43.50;;;;;;;-1.82;78.81;99739.86;2196767;81;21344;-80
2021/12/13 06:15:16;;;;;;;112.10;40.73;;;;;;;-1.82;78.64;99742.41;2197143;80;21400;-80
2021/12/13 06:18:16;;;;;;;119.57;42.43;;;;;;;-1.89;78.80;99747.85;2196749;81;20960;-80
2021/12/13 06:21:17;;;;;;;103.63;40.93;;;;;;;-1.90;78.90;99751.58;2195327;80;20969;-80
2021/12/13 06:24:18;;;;;;;115.00;36.93;;;;;;;-1.88;79.20;99757.31;2195000;81;21003;-80
2021/12/13 06:27:18;;;;;;;115.93;39.60;;;;;;;-1.83;79.30;99755.98;2194747;80;21008;-80
2021/12/13 06:30:19;;;;;;;109.80;39.33;;;;;;;-1.80;78.89;99761.72;2195150;81;20964;-80
2021/12/13 06:33:19;;;;;;;95.07;37.63;;;;;;;-1.72;79.38;99768.34;2194664;80;20988;-79
2021/12/13 06:36:20;;;;;;;125.53;44.80;;;;;;;-1.64;79.21;99777.47;2194556;81;21439;-80
2021/12/13 06:39:21;;;;;;;99.83;36.30;;;;;;;-1.64;79.06;99778.36;2193527;81;20980;-80
2021/12/13 06:42:22;;;;;;;112.53;40.63;;;;;;;-1.56;78.93;99780.21;2194622;81;21004;-80
2021/12/13 06:45:22;;;;;;;193.13;78.67;;;;;;;-1.52;78.64;99779.66;2195167;81;21000;-80
2021/12/13 06:48:23;;;;;;;115.00;44.03;;;;;;;-1.52;78.53;99775.82;2195754;81;20966;-80
2021/12/13 06:51:23;;;;;;;108.43;37.27;;;;;;;-1.52;78.50;99779.66;2195044;80;20997;-80
2021/12/13 06:54:24;;;;;;;132.80;45.33;;;;;;;-1.54;78.03;99784.16;2194756;80;21041;-80
2021/12/13 06:57:24;;;;;;;105.43;41.53;;;;;;;-1.61;78.42;99791.78;2195231;80;21016;-79
2021/12/13 07:00:26;;;;;;;111.10;41.20;;;;;;;-1.59;78.26;99796.63;2195583;81;21463;-78
2021/12/13 07:03:27;;;;;;;112.27;38.50;;;;;;;-1.60;78.34;99797.41;2197018;80;21012;-79
2021/12/13 07:06:28;;;;;;;123.63;43.57;;;;;;;-1.66;77.83;99798.23;2207357;81;20963;-79
2021/12/13 07:09:28;;;;;;;126.60;47.37;;;;;;;-1.69;78.01;99796.33;2207633;81;20984;-79
2021/12/13 07:12:31;;;;;;;113.50;50.17;;;;;;;-1.68;77.95;99800.67;2206910;81;20979;-79
2021/12/13 07:15:31;;;;;;;109.33;43.60;;;;;;;-1.57;78.45;99802.75;2206694;81;21278;-79
2021/12/13 07:21:39;;;;;;;100.37;41.60;;;;;;;-1.25;78.09;99806.41;2236213;79;22251;-81
2021/12/13 07:24:43;;;;;;;201.03;91.93;;;;;;;-1.23;77.91;99801.39;2188141;80;21328;-80
2021/12/13 07:27:43;;;;;;;164.77;70.87;;;;;;;-1.20;77.51;99802.89;2188385;81;21366;-80
2021/12/13 07:30:44;;;;;;;102.17;43.13;;;;;;;-1.20;77.34;99811.86;2188185;81;21076;-81
2021/12/13 07:33:45;;;;;;;90.87;38.07;;;;;;;-1.19;77.54;99808.13;2188955;81;20986;-82
2021/12/13 07:36:46;;;;;;;79.80;35.70;;;;;;;-1.12;77.52;99818.05;2188961;81;21276;-81
2021/12/13 07:39:47;;;;;;;78.13;34.87;;;;;;;-0.85;77.62;99824.31;2187850;81;20972;-81
2021/12/13 07:42:48;;;;;;;77.43;34.17;;;;;;;-0.85;76.84;99821.74;2187686;81;21007;-78
2021/12/13 07:45:48;;;;;;;76.43;35.10;;;;;;;-0.86;76.75;99825.48;2187507;81;20987;-79
2021/12/13 07:48:52;;;;;;;92.83;37.50;;;;;;;-0.86;76.82;99830.22;2187477;81;21365;-83
2021/12/13 07:51:55;;;;;;;75.60;33.77;;;;;;;-0.82;76.78;99834.78;2188128;81;21039;-82
2021/12/13 07:54:55;;;;;;;69.30;31.60;;;;;;;-0.87;76.19;99839.05;2188750;81;20944;-79
2021/12/13 07:57:56;;;;;;;77.37;32.27;;;;;;;-0.92;76.10;99841.27;2186865;81;21446;-81
2021/12/13 08:00:57;;;;;;;66.10;28.97;;;;;;;-0.94;76.23;99836.42;2186562;81;20980;-82
2021/12/13 08:07:35;;;;;;;64.20;30.00;;;;;;;-1.02;76.00;99837.16;2186235;81;20904;-81
2021/12/13 08:10:36;;;;;;;63.73;28.93;;;;;;;-1.01;76.04;99831.25;2187520;81;20936;-80
2021/12/13 08:13:36;;;;;;;124.27;55.63;;;;;;;-0.98;76.25;99837.88;2187772;81;21673;-82
2021/12/13 08:16:37;;;;;;;69.80;33.37;;;;;;;-0.93;76.24;99839.88;2187612;81;20940;-82
2021/12/13 08:19:37;;;;;;;73.40;32.70;;;;;;;-0.87;76.00;99841.22;2182868;81;21016;-84
2021/12/13 08:22:38;;;;;;;66.67;30.43;;;;;;;-0.75;76.13;99848.55;2170813;81;20952;-82
2021/12/13 08:25:38;;;;;;;74.13;29.47;;;;;;;-0.65;75.69;99852.66;2170959;81;21423;-83
2021/12/13 08:28:39;;;;;;;67.17;30.97;;;;;;;-0.62;75.12;99853.27;2171294;81;20946;-82
2021/12/13 08:31:39;;;;;;;71.53;32.60;;;;;;;-0.73;75.10;99855.95;2171453;81;20957;-82
2021/12/13 08:34:40;;;;;;;74.33;32.23;;;;;;;-0.67;75.43;99866.65;2171859;81;20989;-81
2021/12/13 08:37:41;;;;;;;88.50;36.17;;;;;;;-0.34;75.92;99866.88;2171182;81;20956;-80
2021/12/13 08:40:42;;;;;;;102.80;41.40;;;;;;;-0.28;75.11;99857.44;2171423;81;21739;-81
2021/12/13 08:43:42;;;;;;;104.43;42.00;;;;;;;-0.35;75.03;99869.33;2170904;81;21575;-81
2021/12/13 08:46:43;;;;;;;103.93;45.50;;;;;;;-0.41;74.89;99860.81;2170192;81;20944;-81
2021/12/13 08:49:43;;;;;;;105.23;41.50;;;;;;;-0.42;75.15;99864.16;2169373;81;21040;-80
2021/12/13 08:52:44;;;;;;;104.97;44.97;;;;;;;-0.47;74.27;99861.66;2170306;81;20976;-82
2021/12/13 08:55:44;;;;;;;100.47;40.70;;;;;;;-0.68;74.63;99859.73;2169589;81;21432;-81
2021/12/13 08:58:45;;;;;;;108.50;40.83;;;;;;;-0.74;74.88;99859.69;2169880;81;20960;-81
2021/12/13 09:01:45;;;;;;;99.67;39.17;;;;;;;-0.77;74.77;99855.63;2169364;81;20952;-82
2021/12/13 09:04:46;;;;;;;107.40;39.93;;;;;;;-0.78;74.60;99858.58;2169035;81;20956;-80
2021/12/13 09:07:47;;;;;;;77.50;35.07;;;;;;;-0.89;74.10;99865.84;2169076;81;20929;-82
2021/12/13 09:10:47;;;;;;;92.30;36.93;;;;;;;-1.03;74.50;99863.95;2170466;82;21012;-81
2021/12/13 09:13:49;;;;;;;81.73;36.33;;;;;;;-1.19;74.51;99867.05;2170402;81;21384;-81
2021/12/13 09:16:55;;;;;;;78.60;35.40;;;;;;;-1.33;74.29;99866.42;2170692;82;20945;-80
2021/12/13 09:19:52;;;;;;;88.97;38.70;;;;;;;-1.34;74.84;99856.95;2173576;81;21917;-81
2021/12/13 09:22:52;;;;;;;90.87;41.73;;;;;;;-1.24;75.18;99854.69;2187466;81;20979;-80
2021/12/13 09:25:53;;;;;;;68.97;36.30;;;;;;;-1.19;74.78;99854.25;2187768;81;21478;-81
2021/12/13 09:28:53;;;;;;;68.33;34.10;;;;;;;-1.12;75.08;99857.77;2187495;81;20936;-82
2021/12/13 09:31:54;;;;;;;75.90;34.90;;;;;;;-1.08;74.33;99853.75;2187587;81;20991;-81
2021/12/13 09:34:54;;;;;;;129.27;69.00;;;;;;;-1.04;74.23;99850.63;2187622;81;20955;-80
2021/12/13 09:37:55;;;;;;;91.13;44.70;;;;;;;-0.95;73.96;99843.61;2187391;81;21293;-81
2021/12/13 09:40:55;;;;;;;79.57;37.80;;;;;;;-0.88;74.24;99838.16;2187311;81;20983;-82
2021/12/13 09:43:56;;;;;;;84.70;41.77;;;;;;;-0.78;73.85;99845.76;2187560;81;20920;-82
2021/12/13 09:46:56;;;;;;;85.67;41.90;;;;;;;-0.77;73.78;99846.26;2187030;81;20948;-81
2021/12/13 09:49:57;;;;;;;91.93;41.93;;;;;;;-0.74;73.13;99849.05;2187413;81;21415;-83
2021/12/13 09:52:57;;;;;;;103.23;45.73;;;;;;;-0.64;73.13;99844.18;2187718;81;20984;-82
2021/12/13 09:55:58;;;;;;;98.87;46.27;;;;;;;-0.53;73.11;99841.98;2187448;81;20948;-82
2021/12/13 09:58:59;;;;;;;104.47;46.97;;;;;;;-0.39;73.17;99836.16;2187524;81;21414;-82
2021/12/13 10:01:59;;;;;;;108.53;48.07;;;;;;;-0.32;72.66;99837.48;2187410;81;20956;-82
2021/12/13 10:05:00;;;;;;;113.40;51.73;;;;;;;-0.33;72.71;99835.70;2187831;81;20972;-82
2021/12/13 10:08:00;;;;;;;114.20;55.00;;;;;;;-0.33;72.43;99837.88;2187737;81;20948;-82
2021/12/13 10:11:01;;;;;;;122.50;58.20;;;;;;;-0.22;72.54;99841.19;2187574;81;20948;-81
2021/12/13 10:14:02;;;;;;;114.03;54.63;;;;;;;-0.05;72.34;99843.25;2187476;81;21667;-81
2021/12/13 10:17:02;;;;;;;116.87;54.57;;;;;;;0.07;71.99;99842.34;2187149;81;20956;-81
2021/12/13 10:20:02;;;;;;;114.03;57.57;;;;;;;0.15;71.78;99843.76;2186807;81;21101;-82
2021/12/13 10:23:03;;;;;;;127.50;58.87;;;;;;;0.11;71.39;99842.66;2188010;81;20964;-82
2021/12/13 10:26:04;;;;;;;152.40;85.27;;;;;;;0.10;71.42;99841.27;2188113;81;21396;-81
2021/12/13 10:29:04;;;;;;;142.90;74.70;;;;;;;0.12;71.18;99843.16;2187736;81;21287;-81
2021/12/13 10:32:05;;;;;;;144.07;74.83;;;;;;;0.09;70.60;99842.05;2187389;81;20928;-82
2021/12/13 10:35:05;;;;;;;138.20;73.10;;;;;;;-0.02;70.77;99836.15;2187645;81;20991;-80
2021/12/13 10:38:06;;;;;;;140.80;72.73;;;;;;;-0.10;70.71;99831.77;2186633;81;20921;-81
2021/12/13 10:41:08;;;;;;;123.43;65.30;;;;;;;-0.15;70.97;99830.56;2186937;81;20980;-81
2021/12/13 10:44:08;;;;;;;120.93;64.17;;;;;;;-0.15;71.12;99832.23;2187046;81;21120;-81
2021/12/13 10:47:09;;;;;;;117.03;60.47;;;;;;;-0.13;71.23;99828.99;2188016;81;21420;-81
2021/12/13 10:50:09;;;;;;;111.50;59.20;;;;;;;-0.13;71.12;99828.99;2187753;81;21035;-82
2021/12/13 10:53:10;;;;;;;116.40;59.90;;;;;;;-0.16;71.17;99831.34;2187340;81;21379;-82
2021/12/13 10:56:10;;;;;;;104.20;53.60;;;;;;;-0.17;71.17;99834.70;2187656;81;20975;-82
2021/12/13 10:59:11;;;;;;;113.27;58.37;;;;;;;-0.19;71.21;99836.27;2187642;81;21023;-82
2021/12/13 11:02:11;;;;;;;125.70;63.13;;;;;;;-0.23;71.40;99835.95;2188148;81;20940;-82
2021/12/13 11:05:12;;;;;;;142.40;68.93;;;;;;;-0.26;71.34;99835.34;2188466;81;21328;-82
2021/12/13 11:08:12;;;;;;;127.03;66.37;;;;;;;-0.32;71.35;99841.33;2187411;81;21012;-79
2021/12/13 11:11:15;;;;;;;128.50;63.30;;;;;;;-0.36;71.57;99836.77;2187910;81;20988;-79
2021/12/13 11:14:17;;;;;;;119.00;60.43;;;;;;;-0.38;71.82;99827.68;2187706;81;20988;-82
2021/12/13 11:17:18;;;;;;;117.23;58.23;;;;;;;-0.30;72.05;99830.78;2187759;81;20983;-82
2021/12/13 11:20:18;;;;;;;119.37;58.43;;;;;;;-0.20;72.09;99829.74;2187133;81;21059;-80
2021/12/13 11:23:19;;;;;;;115.00;58.70;;;;;;;-0.06;71.91;99825.17;2187676;81;20964;-83
2021/12/13 11:26:20;;;;;;;112.77;56.30;;;;;;;0.02;71.80;99822.77;2188175;81;20948;-83
2021/12/13 11:29:20;;;;;;;114.07;58.30;;;;;;;0.09;71.91;99821.52;2187386;81;20952;-82
2021/12/13 11:32:21;;;;;;;113.20;56.13;;;;;;;0.17;71.74;99817.80;2187179;81;20976;-82
2021/12/13 11:35:21;;;;;;;131.40;65.37;;;;;;;0.26;71.85;99823.55;2187261;81;20999;-81
2021/12/13 11:38:26;;;;;;;118.30;56.33;;;;;;;0.31;71.94;99824.36;2187300;81;20975;-81
2021/12/13 11:41:24;;;;;;;115.27;54.47;;;;;;;0.31;71.96;99821.79;2187427;81;21019;-81
2021/12/13 11:44:25;;;;;;;108.67;55.40;;;;;;;0.31;72.34;99814.48;2187781;81;20936;-82
2021/12/13 11:47:26;;;;;;;102.80;51.77;;;;;;;0.40;72.41;99815.48;2187278;81;21060;-82
2021/12/13 11:50:26;;;;;;;105.10;53.33;;;;;;;0.52;72.42;99804.74;2186604;81;21391;-82
2021/12/13 11:53:27;;;;;;;103.53;50.17;;;;;;;0.51;72.35;99807.70;2186737;81;21309;-82
2021/12/13 11:56:27;;;;;;;117.03;56.27;;;;;;;0.50;72.32;99809.78;2186971;81;20991;-81
2021/12/13 11:59:28;;;;;;;120.30;60.10;;;;;;;0.53;72.42;99808.70;2186480;81;20967;-83
2021/12/13 12:02:28;;;;;;;123.90;61.30;;;;;;;0.55;72.42;99807.52;2186296;81;21644;-82
2021/12/13 12:05:29;;;;;;;126.37;61.03;;;;;;;0.55;72.30;99804.55;2186299;81;20920;-82
2021/12/13 12:08:29;;;;;;;119.07;59.90;;;;;;;0.56;72.22;99803.77;2187127;81;20932;-84
2021/12/13 12:11:30;;;;;;;115.57;58.80;;;;;;;0.52;72.38;99803.06;2187609;81;21339;-83
2021/12/13 12:14:30;;;;;;;124.27;60.13;;;;;;;0.49;72.44;99801.58;2188000;81;20964;-82
2021/12/13 12:17:31;;;;;;;113.40;56.83;;;;;;;0.46;72.53;99794.95;2187368;81;21066;-82
2021/12/13 12:20:32;;;;;;;152.93;70.43;;;;;;;0.42;72.51;99794.65;2186426;81;20988;-79
2021/12/13 12:23:32;;;;;;;177.67;79.47;;;;;;;0.44;73.03;99800.38;2186533;81;21409;-80
2021/12/13 12:26:33;;;;;;;141.57;65.80;;;;;;;0.48;73.03;99796.34;2187078;81;21363;-80
2021/12/13 12:29:33;;;;;;;149.87;72.37;;;;;;;0.48;73.13;99792.48;2187379;81;20955;-80
2021/12/13 12:32:34;;;;;;;169.67;82.10;;;;;;;0.50;73.04;99796.94;2187364;81;20956;-82
2021/12/13 12:35:34;;;;;;;117.40;59.80;;;;;;;0.47;73.16;99796.73;2188534;81;21019;-81
2021/12/13 12:38:35;;;;;;;126.23;61.07;;;;;;;0.45;73.21;99795.74;2187613;81;20916;-81
2021/12/13 12:41:36;;;;;;;113.93;58.33;;;;;;;0.43;73.36;99796.42;2187421;81;21388;-81
2021/12/13 12:44:37;;;;;;;125.77;60.83;;;;;;;0.41;73.44;99796.33;2187475;81;20941;-80
2021/12/13 12:47:37;;;;;;;135.37;66.63;;;;;;;0.33;73.62;99800.45;2187753;81;20940;-80
2021/12/13 12:50:38;;;;;;;131.80;66.07;;;;;;;0.23;73.63;99802.80;2187303;81;20963;-80
2021/12/13 12:53:38;;;;;;;139.90;69.97;;;;;;;0.12;73.86;99803.75;2187231;81;20920;-80
2021/12/13 12:56:42;;;;;;;132.93;64.50;;;;;;;0.00;74.16;99802.53;2187460;81;20948;-80
2021/12/13 12:59:43;;;;;;;136.73;67.67;;;;;;;-0.07;74.36;99806.31;2188015;81;21131;-80
2021/12/13 13:02:43;;;;;;;147.33;69.83;;;;;;;-0.14;74.69;99819.52;2186331;81;20980;-82
2021/12/13 13:05:46;;;;;;;147.50;66.80;;;;;;;-0.20;75.08;99819.48;2185579;81;20952;-80
2021/12/13 13:08:46;;;;;;;175.17;86.20;;;;;;;-0.25;75.35;99822.12;2186005;81;20948;-80
2021/12/13 13:11:56;;;;;;;149.07;71.73;;;;;;;-0.23;75.72;99826.97;2186475;81;21687;-81
2021/12/13 13:14:56;;;;;;;153.10;68.97;;;;;;;-0.21;76.11;99833.98;2186269;81;20948;-81
2021/12/13 13:17:57;;;;;;;154.50;70.90;;;;;;;-0.21;76.27;99832.70;2185875;81;20995;-79
2021/12/13 13:20:57;;;;;;;167.30;70.67;;;;;;;-0.24;76.33;99839.30;2185958;81;21019;-79
2021/12/13 13:23:59;;;;;;;150.57;68.53;;;;;;;-0.27;76.54;99831.38;2186196;81;20984;-79
2021/12/13 13:26:59;;;;;;;144.90;65.23;;;;;;;-0.28;76.72;99835.63;2187072;81;21317;-79
2021/12/13 13:30:00;;;;;;;166.13;58.43;;;;;;;-0.33;76.77;99834.41;2187878;81;20957;-82
2021/12/13 13:33:00;;;;;;;112.83;50.90;;;;;;;-0.32;77.03;99833.63;2188302;81;20940;-80
2021/12/13 13:36:01;;;;;;;114.53;50.07;;;;;;;-0.36;76.71;99836.38;2186346;81;21676;-80
2021/12/13 13:39:02;;;;;;;110.33;52.03;;;;;;;-0.49;76.72;99829.88;2186171;81;20948;-80
2021/12/13 13:42:02;;;;;;;110.50;53.73;;;;;;;-0.57;76.96;99828.84;2186130;81;20980;-80
2021/12/13 13:45:03;;;;;;;135.70;55.63;;;;;;;-0.65;77.03;99833.03;2186556;81;21725;-78
2021/12/13 13:48:03;;;;;;;114.47;53.73;;;;;;;-0.69;77.26;99841.29;2185707;81;20924;-79
2021/12/13 13:51:04;;;;;;;109.43;50.93;;;;;;;-0.71;77.22;99850.55;2185421;81;21027;-79
2021/12/13 13:54:05;;;;;;;123.53;62.43;;;;;;;-0.76;77.26;99850.61;2186270;81;20967;-80
2021/12/13 13:57:05;;;;;;;107.57;54.20;;;;;;;-0.84;77.38;99854.28;2185582;81;21371;-80
2021/12/13 14:00:06;;;;;;;115.07;55.50;;;;;;;-0.88;77.56;99854.81;2186260;81;21427;-80